sensor_id;sensor_type;location;lat;lon;timestamp;P1;durP1;ratioP1;P2;durP2;ratioP2
15669;SDS011;18524;45.190;5.732;2022-08-19T00:02:51;3.57;;;3.23;;
15669;SDS011;18524;45.190;5.732;2022-08-19T00:07:42;4.23;;;3.10;;
15669;SDS011;18524;45.190;5.732;2022-08-19T00:12:33;2.90;;;2.70;;
15669;SDS011;18524;45.190;5.732;2022-08-19T00:17:24;3.13;;;2.80;;
15669;SDS011;18524;45.190;5.732;2022-08-19T00:22:14;3.10;;;2.80;;
15669;SDS011;18524;45.190;5.732;2022-08-19T00:27:07;2.80;;;2.60;;
15669;SDS011;18524;45.190;5.732;2022-08-19T00:31:58;2.87;;;2.33;;
15669;SDS011;18524;45.190;5.732;2022-08-19T00:36:49;2.83;;;2.63;;
15669;SDS011;18524;45.190;5.732;2022-08-19T00:41:40;2.97;;;2.40;;
15669;SDS011;18524;45.190;5.732;2022-08-19T00:46:32;2.57;;;2.47;;
15669;SDS011;18524;45.190;5.732;2022-08-19T00:51:26;2.70;;;2.50;;
15669;SDS011;18524;45.190;5.732;2022-08-19T00:56:19;3.17;;;2.90;;
15669;SDS011;18524;45.190;5.732;2022-08-19T01:01:10;3.80;;;2.87;;
15669;SDS011;18524;45.190;5.732;2022-08-19T01:06:00;3.20;;;2.70;;
15669;SDS011;18524;45.190;5.732;2022-08-19T01:10:55;3.13;;;2.67;;
15669;SDS011;18524;45.190;5.732;2022-08-19T01:15:50;3.23;;;2.93;;
15669;SDS011;18524;45.190;5.732;2022-08-19T01:20:44;3.10;;;2.67;;
15669;SDS011;18524;45.190;5.732;2022-08-19T01:25:39;4.17;;;2.80;;
15669;SDS011;18524;45.190;5.732;2022-08-19T01:30:40;3.00;;;2.70;;
15669;SDS011;18524;45.190;5.732;2022-08-19T01:35:31;3.93;;;3.20;;
15669;SDS011;18524;45.190;5.732;2022-08-19T01:40:24;3.30;;;3.00;;
15669;SDS011;18524;45.190;5.732;2022-08-19T01:45:17;3.20;;;2.90;;
15669;SDS011;18524;45.190;5.732;2022-08-19T01:50:09;3.10;;;2.80;;
15669;SDS011;18524;45.190;5.732;2022-08-19T01:55:00;3.00;;;2.70;;
15669;SDS011;18524;45.190;5.732;2022-08-19T01:59:50;2.90;;;2.60;;
15669;SDS011;18524;45.190;5.732;2022-08-19T02:04:41;2.50;;;2.30;;
15669;SDS011;18524;45.190;5.732;2022-08-19T02:09:32;2.47;;;2.37;;
15669;SDS011;18524;45.190;5.732;2022-08-19T02:14:22;3.77;;;3.20;;
15669;SDS011;18524;45.190;5.732;2022-08-19T02:19:13;3.00;;;2.80;;
15669;SDS011;18524;45.190;5.732;2022-08-19T02:24:03;2.60;;;2.40;;
15669;SDS011;18524;45.190;5.732;2022-08-19T02:28:54;3.17;;;2.93;;
15669;SDS011;18524;45.190;5.732;2022-08-19T02:33:45;2.73;;;2.53;;
15669;SDS011;18524;45.190;5.732;2022-08-19T02:38:37;3.20;;;2.97;;
15669;SDS011;18524;45.190;5.732;2022-08-19T02:43:28;2.83;;;2.50;;
15669;SDS011;18524;45.190;5.732;2022-08-19T02:48:20;4.17;;;3.20;;
15669;SDS011;18524;45.190;5.732;2022-08-19T02:53:11;2.47;;;2.27;;
15669;SDS011;18524;45.190;5.732;2022-08-19T02:58:02;3.13;;;2.93;;
15669;SDS011;18524;45.190;5.732;2022-08-19T03:02:52;2.93;;;2.73;;
15669;SDS011;18524;45.190;5.732;2022-08-19T03:07:43;5.77;;;3.40;;
15669;SDS011;18524;45.190;5.732;2022-08-19T03:12:37;3.63;;;3.27;;
15669;SDS011;18524;45.190;5.732;2022-08-19T03:17:28;3.63;;;3.23;;
15669;SDS011;18524;45.190;5.732;2022-08-19T03:22:18;3.40;;;3.10;;
15669;SDS011;18524;45.190;5.732;2022-08-19T03:27:09;3.20;;;2.80;;
15669;SDS011;18524;45.190;5.732;2022-08-19T03:32:00;3.23;;;2.93;;
15669;SDS011;18524;45.190;5.732;2022-08-19T03:36:53;3.37;;;2.90;;
15669;SDS011;18524;45.190;5.732;2022-08-19T03:41:46;3.30;;;2.77;;
15669;SDS011;18524;45.190;5.732;2022-08-19T03:46:39;3.20;;;2.90;;
15669;SDS011;18524;45.190;5.732;2022-08-19T03:51:31;3.00;;;2.80;;
15669;SDS011;18524;45.190;5.732;2022-08-19T03:56:25;2.87;;;2.67;;
15669;SDS011;18524;45.190;5.732;2022-08-19T04:01:19;3.60;;;3.30;;
15669;SDS011;18524;45.190;5.732;2022-08-19T04:06:13;3.03;;;2.83;;
15669;SDS011;18524;45.190;5.732;2022-08-19T04:11:08;2.57;;;2.37;;
15669;SDS011;18524;45.190;5.732;2022-08-19T04:16:03;2.60;;;2.40;;
15669;SDS011;18524;45.190;5.732;2022-08-19T04:20:55;2.27;;;2.00;;
15669;SDS011;18524;45.190;5.732;2022-08-19T04:25:46;2.40;;;2.20;;
15669;SDS011;18524;45.190;5.732;2022-08-19T04:30:38;3.00;;;2.80;;
15669;SDS011;18524;45.190;5.732;2022-08-19T04:35:40;3.00;;;2.80;;
15669;SDS011;18524;45.190;5.732;2022-08-19T04:40:32;3.13;;;2.40;;
15669;SDS011;18524;45.190;5.732;2022-08-19T04:45:44;2.60;;;2.40;;
15669;SDS011;18524;45.190;5.732;2022-08-19T04:50:35;2.60;;;2.40;;
15669;SDS011;18524;45.190;5.732;2022-08-19T04:55:26;2.47;;;2.37;;
15669;SDS011;18524;45.190;5.732;2022-08-19T05:00:16;3.10;;;2.80;;
15669;SDS011;18524;45.190;5.732;2022-08-19T05:05:07;2.60;;;2.40;;
15669;SDS011;18524;45.190;5.732;2022-08-19T05:09:57;2.50;;;2.27;;
15669;SDS011;18524;45.190;5.732;2022-08-19T05:14:48;2.60;;;2.40;;
15669;SDS011;18524;45.190;5.732;2022-08-19T05:19:39;2.70;;;2.50;;
15669;SDS011;18524;45.190;5.732;2022-08-19T05:24:48;2.30;;;2.13;;
15669;SDS011;18524;45.190;5.732;2022-08-19T05:29:38;2.87;;;2.67;;
15669;SDS011;18524;45.190;5.732;2022-08-19T05:34:29;3.53;;;3.23;;
15669;SDS011;18524;45.190;5.732;2022-08-19T05:39:19;2.83;;;2.63;;
15669;SDS011;18524;45.190;5.732;2022-08-19T05:44:10;3.00;;;2.80;;
15669;SDS011;18524;45.190;5.732;2022-08-19T05:49:01;2.90;;;2.70;;
15669;SDS011;18524;45.190;5.732;2022-08-19T05:53:52;2.37;;;2.27;;
15669;SDS011;18524;45.190;5.732;2022-08-19T05:58:43;3.67;;;3.03;;
15669;SDS011;18524;45.190;5.732;2022-08-19T06:03:35;3.73;;;3.03;;
15669;SDS011;18524;45.190;5.732;2022-08-19T06:08:27;4.10;;;3.50;;
15669;SDS011;18524;45.190;5.732;2022-08-19T06:13:18;4.10;;;3.80;;
15669;SDS011;18524;45.190;5.732;2022-08-19T06:18:09;4.57;;;4.17;;
15669;SDS011;18524;45.190;5.732;2022-08-19T06:22:59;3.30;;;3.10;;
15669;SDS011;18524;45.190;5.732;2022-08-19T06:27:50;4.93;;;4.53;;
15669;SDS011;18524;45.190;5.732;2022-08-19T06:32:40;4.20;;;3.90;;
15669;SDS011;18524;45.190;5.732;2022-08-19T06:37:30;3.90;;;3.60;;
15669;SDS011;18524;45.190;5.732;2022-08-19T06:42:21;4.60;;;4.30;;
15669;SDS011;18524;45.190;5.732;2022-08-19T06:47:13;3.47;;;3.23;;
15669;SDS011;18524;45.190;5.732;2022-08-19T06:52:05;4.53;;;4.23;;
15669;SDS011;18524;45.190;5.732;2022-08-19T06:56:57;4.40;;;4.10;;
15669;SDS011;18524;45.190;5.732;2022-08-19T07:01:51;3.90;;;3.60;;
15669;SDS011;18524;45.190;5.732;2022-08-19T07:06:43;4.63;;;4.20;;
15669;SDS011;18524;45.190;5.732;2022-08-19T07:11:34;4.20;;;3.90;;
15669;SDS011;18524;45.190;5.732;2022-08-19T07:16:25;4.03;;;3.10;;
15669;SDS011;18524;45.190;5.732;2022-08-19T07:21:20;4.33;;;3.63;;
15669;SDS011;18524;45.190;5.732;2022-08-19T07:31:13;4.40;;;4.00;;
15669;SDS011;18524;45.190;5.732;2022-08-19T07:36:07;3.90;;;3.60;;
15669;SDS011;18524;45.190;5.732;2022-08-19T07:41:01;3.20;;;3.00;;
15669;SDS011;18524;45.190;5.732;2022-08-19T07:45:52;4.77;;;3.23;;
15669;SDS011;18524;45.190;5.732;2022-08-19T07:50:48;3.13;;;2.93;;
15669;SDS011;18524;45.190;5.732;2022-08-19T07:55:38;2.70;;;2.50;;
15669;SDS011;18524;45.190;5.732;2022-08-19T08:00:29;3.33;;;3.13;;
15669;SDS011;18524;45.190;5.732;2022-08-19T08:05:19;3.30;;;3.10;;
15669;SDS011;18524;45.190;5.732;2022-08-19T08:10:28;2.93;;;2.70;;
15669;SDS011;18524;45.190;5.732;2022-08-19T08:15:18;3.27;;;3.03;;
15669;SDS011;18524;45.190;5.732;2022-08-19T08:20:10;3.40;;;3.03;;
15669;SDS011;18524;45.190;5.732;2022-08-19T08:25:23;3.60;;;3.40;;
15669;SDS011;18524;45.190;5.732;2022-08-19T08:30:14;3.43;;;3.23;;
15669;SDS011;18524;45.190;5.732;2022-08-19T08:35:16;4.10;;;3.40;;
15669;SDS011;18524;45.190;5.732;2022-08-19T08:40:22;3.70;;;3.30;;
15669;SDS011;18524;45.190;5.732;2022-08-19T08:45:18;3.83;;;3.57;;
15669;SDS011;18524;45.190;5.732;2022-08-19T08:50:10;3.40;;;3.10;;
15669;SDS011;18524;45.190;5.732;2022-08-19T08:55:08;3.90;;;3.50;;
15669;SDS011;18524;45.190;5.732;2022-08-19T09:00:02;3.07;;;2.87;;
15669;SDS011;18524;45.190;5.732;2022-08-19T09:04:56;3.20;;;3.00;;
15669;SDS011;18524;45.190;5.732;2022-08-19T09:09:48;3.20;;;2.90;;
15669;SDS011;18524;45.190;5.732;2022-08-19T09:15:00;2.30;;;2.13;;
15669;SDS011;18524;45.190;5.732;2022-08-19T09:19:58;2.60;;;2.40;;
15669;SDS011;18524;45.190;5.732;2022-08-19T09:25:04;2.97;;;2.77;;
15669;SDS011;18524;45.190;5.732;2022-08-19T09:29:57;2.50;;;2.40;;
15669;SDS011;18524;45.190;5.732;2022-08-19T09:34:48;2.27;;;2.13;;
15669;SDS011;18524;45.190;5.732;2022-08-19T09:39:39;2.73;;;2.53;;
15669;SDS011;18524;45.190;5.732;2022-08-19T09:44:30;3.50;;;3.30;;
15669;SDS011;18524;45.190;5.732;2022-08-19T09:49:23;2.73;;;2.53;;
15669;SDS011;18524;45.190;5.732;2022-08-19T09:54:14;3.10;;;2.90;;
15669;SDS011;18524;45.190;5.732;2022-08-19T09:59:04;3.20;;;3.00;;
15669;SDS011;18524;45.190;5.732;2022-08-19T10:03:55;2.07;;;1.97;;
15669;SDS011;18524;45.190;5.732;2022-08-19T10:08:47;2.27;;;2.07;;
15669;SDS011;18524;45.190;5.732;2022-08-19T10:13:38;3.00;;;2.70;;
15669;SDS011;18524;45.190;5.732;2022-08-19T10:18:29;4.33;;;3.40;;
15669;SDS011;18524;45.190;5.732;2022-08-19T10:23:19;3.97;;;3.67;;
15669;SDS011;18524;45.190;5.732;2022-08-19T10:28:10;4.17;;;3.87;;
15669;SDS011;18524;45.190;5.732;2022-08-19T10:33:01;4.87;;;4.57;;
15669;SDS011;18524;45.190;5.732;2022-08-19T10:37:52;4.13;;;3.83;;
15669;SDS011;18524;45.190;5.732;2022-08-19T10:42:42;3.83;;;3.53;;
15669;SDS011;18524;45.190;5.732;2022-08-19T10:47:34;5.10;;;4.70;;
15669;SDS011;18524;45.190;5.732;2022-08-19T10:52:25;4.67;;;4.37;;
15669;SDS011;18524;45.190;5.732;2022-08-19T10:57:24;4.60;;;4.30;;
15669;SDS011;18524;45.190;5.732;2022-08-19T11:02:19;3.43;;;3.20;;
15669;SDS011;18524;45.190;5.732;2022-08-19T11:07:09;4.93;;;4.43;;
15669;SDS011;18524;45.190;5.732;2022-08-19T11:12:01;5.27;;;4.87;;
15669;SDS011;18524;45.190;5.732;2022-08-19T11:16:52;5.13;;;4.73;;
15669;SDS011;18524;45.190;5.732;2022-08-19T11:21:47;5.60;;;5.10;;
15669;SDS011;18524;45.190;5.732;2022-08-19T11:26:39;4.80;;;4.50;;
15669;SDS011;18524;45.190;5.732;2022-08-19T11:31:31;3.70;;;3.50;;
15669;SDS011;18524;45.190;5.732;2022-08-19T11:36:23;4.97;;;4.57;;
15669;SDS011;18524;45.190;5.732;2022-08-19T11:41:14;3.97;;;3.67;;
15669;SDS011;18524;45.190;5.732;2022-08-19T11:46:06;4.60;;;4.30;;
15669;SDS011;18524;45.190;5.732;2022-08-19T11:50:58;4.50;;;4.20;;
15669;SDS011;18524;45.190;5.732;2022-08-19T11:55:52;3.87;;;3.67;;
15669;SDS011;18524;45.190;5.732;2022-08-19T12:00:46;5.37;;;5.00;;
15669;SDS011;18524;45.190;5.732;2022-08-19T12:05:37;4.77;;;4.47;;
15669;SDS011;18524;45.190;5.732;2022-08-19T12:10:28;5.53;;;5.10;;
15669;SDS011;18524;45.190;5.732;2022-08-19T12:15:19;4.77;;;4.37;;
15669;SDS011;18524;45.190;5.732;2022-08-19T12:20:10;6.27;;;5.87;;
15669;SDS011;18524;45.190;5.732;2022-08-19T12:25:04;5.73;;;5.33;;
15669;SDS011;18524;45.190;5.732;2022-08-19T12:29:55;4.60;;;4.20;;
15669;SDS011;18524;45.190;5.732;2022-08-19T12:34:45;5.20;;;4.80;;
15669;SDS011;18524;45.190;5.732;2022-08-19T12:39:38;4.53;;;4.03;;
15669;SDS011;18524;45.190;5.732;2022-08-19T12:44:31;6.60;;;5.93;;
15669;SDS011;18524;45.190;5.732;2022-08-19T12:49:22;5.93;;;5.53;;
15669;SDS011;18524;45.190;5.732;2022-08-19T12:54:12;6.40;;;5.80;;
15669;SDS011;18524;45.190;5.732;2022-08-19T12:59:03;6.27;;;5.63;;
15669;SDS011;18524;45.190;5.732;2022-08-19T13:03:54;6.23;;;5.73;;
15669;SDS011;18524;45.190;5.732;2022-08-19T13:08:45;7.37;;;6.67;;
15669;SDS011;18524;45.190;5.732;2022-08-19T13:13:35;10.00;;;9.27;;
15669;SDS011;18524;45.190;5.732;2022-08-19T13:18:25;8.60;;;7.90;;
15669;SDS011;18524;45.190;5.732;2022-08-19T13:23:16;6.80;;;6.20;;
15669;SDS011;18524;45.190;5.732;2022-08-19T13:28:06;10.50;;;9.60;;
15669;SDS011;18524;45.190;5.732;2022-08-19T13:32:57;7.97;;;7.37;;
15669;SDS011;18524;45.190;5.732;2022-08-19T13:38:00;9.63;;;8.93;;
15669;SDS011;18524;45.190;5.732;2022-08-19T13:42:55;8.23;;;7.60;;
15669;SDS011;18524;45.190;5.732;2022-08-19T13:47:48;10.17;;;9.17;;
15669;SDS011;18524;45.190;5.732;2022-08-19T13:52:40;13.10;;;11.90;;
15669;SDS011;18524;45.190;5.732;2022-08-19T13:57:32;14.80;;;13.50;;
15669;SDS011;18524;45.190;5.732;2022-08-19T14:02:23;8.23;;;7.63;;
15669;SDS011;18524;45.190;5.732;2022-08-19T14:07:13;10.47;;;9.67;;
15669;SDS011;18524;45.190;5.732;2022-08-19T14:12:04;13.77;;;12.60;;
15669;SDS011;18524;45.190;5.732;2022-08-19T14:16:54;9.53;;;8.73;;
15669;SDS011;18524;45.190;5.732;2022-08-19T14:21:45;13.20;;;11.70;;
15669;SDS011;18524;45.190;5.732;2022-08-19T14:26:35;11.80;;;10.60;;
15669;SDS011;18524;45.190;5.732;2022-08-19T14:31:25;11.27;;;10.13;;
15669;SDS011;18524;45.190;5.732;2022-08-19T14:36:16;12.23;;;10.97;;
15669;SDS011;18524;45.190;5.732;2022-08-19T14:41:20;9.47;;;8.70;;
15669;SDS011;18524;45.190;5.732;2022-08-19T14:46:13;10.90;;;9.17;;
15669;SDS011;18524;45.190;5.732;2022-08-19T14:51:05;12.77;;;11.57;;
15669;SDS011;18524;45.190;5.732;2022-08-19T14:55:56;8.40;;;7.70;;
15669;SDS011;18524;45.190;5.732;2022-08-19T15:00:46;9.33;;;8.50;;
15669;SDS011;18524;45.190;5.732;2022-08-19T15:05:37;9.27;;;8.47;;
15669;SDS011;18524;45.190;5.732;2022-08-19T15:10:28;7.93;;;7.33;;
15669;SDS011;18524;45.190;5.732;2022-08-19T15:15:18;8.77;;;8.07;;
15669;SDS011;18524;45.190;5.732;2022-08-19T15:20:11;7.90;;;7.33;;
15669;SDS011;18524;45.190;5.732;2022-08-19T15:25:06;8.13;;;7.53;;
15669;SDS011;18524;45.190;5.732;2022-08-19T15:29:59;10.10;;;9.20;;
15669;SDS011;18524;45.190;5.732;2022-08-19T15:34:49;9.13;;;8.43;;
15669;SDS011;18524;45.190;5.732;2022-08-19T15:39:39;10.60;;;9.70;;
15669;SDS011;18524;45.190;5.732;2022-08-19T15:44:30;7.17;;;6.67;;
15669;SDS011;18524;45.190;5.732;2022-08-19T15:49:20;9.33;;;8.50;;
15669;SDS011;18524;45.190;5.732;2022-08-19T15:54:13;8.30;;;7.60;;
15669;SDS011;18524;45.190;5.732;2022-08-19T15:59:05;8.87;;;8.17;;
15669;SDS011;18524;45.190;5.732;2022-08-19T16:04:14;8.97;;;8.17;;
15669;SDS011;18524;45.190;5.732;2022-08-19T16:09:24;7.67;;;7.07;;
15669;SDS011;18524;45.190;5.732;2022-08-19T16:14:18;7.60;;;7.10;;
15669;SDS011;18524;45.190;5.732;2022-08-19T16:19:09;7.00;;;6.50;;
15669;SDS011;18524;45.190;5.732;2022-08-19T16:24:01;7.80;;;7.27;;
15669;SDS011;18524;45.190;5.732;2022-08-19T16:28:57;7.50;;;6.97;;
15669;SDS011;18524;45.190;5.732;2022-08-19T16:33:49;9.17;;;8.47;;
15669;SDS011;18524;45.190;5.732;2022-08-19T16:38:40;8.90;;;8.20;;
15669;SDS011;18524;45.190;5.732;2022-08-19T16:43:30;9.20;;;8.50;;
15669;SDS011;18524;45.190;5.732;2022-08-19T16:48:21;8.17;;;7.57;;
15669;SDS011;18524;45.190;5.732;2022-08-19T16:53:16;10.50;;;9.60;;
15669;SDS011;18524;45.190;5.732;2022-08-19T16:58:08;8.87;;;8.27;;
15669;SDS011;18524;45.190;5.732;2022-08-19T17:03:05;9.83;;;9.13;;
15669;SDS011;18524;45.190;5.732;2022-08-19T17:07:58;9.80;;;9.07;;
15669;SDS011;18524;45.190;5.732;2022-08-19T17:12:49;9.37;;;8.57;;
15669;SDS011;18524;45.190;5.732;2022-08-19T17:17:40;8.87;;;8.20;;
15669;SDS011;18524;45.190;5.732;2022-08-19T17:22:30;7.33;;;6.83;;
15669;SDS011;18524;45.190;5.732;2022-08-19T17:27:21;9.73;;;8.93;;
15669;SDS011;18524;45.190;5.732;2022-08-19T17:32:11;11.43;;;10.53;;
15669;SDS011;18524;45.190;5.732;2022-08-19T17:37:02;11.00;;;10.13;;
15669;SDS011;18524;45.190;5.732;2022-08-19T17:41:52;10.70;;;9.70;;
15669;SDS011;18524;45.190;5.732;2022-08-19T17:46:42;8.83;;;8.10;;
15669;SDS011;18524;45.190;5.732;2022-08-19T17:56:29;10.53;;;9.73;;
15669;SDS011;18524;45.190;5.732;2022-08-19T18:01:19;10.20;;;9.40;;
15669;SDS011;18524;45.190;5.732;2022-08-19T18:06:10;11.40;;;10.40;;
15669;SDS011;18524;45.190;5.732;2022-08-19T18:11:05;9.63;;;8.90;;
15669;SDS011;18524;45.190;5.732;2022-08-19T18:15:56;10.80;;;9.80;;
15669;SDS011;18524;45.190;5.732;2022-08-19T18:20:47;11.67;;;10.67;;
15669;SDS011;18524;45.190;5.732;2022-08-19T18:25:37;12.13;;;10.87;;
15669;SDS011;18524;45.190;5.732;2022-08-19T18:30:28;12.43;;;11.33;;
15669;SDS011;18524;45.190;5.732;2022-08-19T18:35:24;11.80;;;10.80;;
15669;SDS011;18524;45.190;5.732;2022-08-19T18:40:19;12.30;;;11.20;;
15669;SDS011;18524;45.190;5.732;2022-08-19T18:45:30;10.97;;;10.17;;
15669;SDS011;18524;45.190;5.732;2022-08-19T18:50:39;9.63;;;8.93;;
15669;SDS011;18524;45.190;5.732;2022-08-19T18:55:32;10.17;;;9.27;;
15669;SDS011;18524;45.190;5.732;2022-08-19T19:00:23;12.30;;;11.27;;
15669;SDS011;18524;45.190;5.732;2022-08-19T19:05:14;12.43;;;11.40;;
15669;SDS011;18524;45.190;5.732;2022-08-19T19:10:05;11.93;;;10.93;;
15669;SDS011;18524;45.190;5.732;2022-08-19T19:14:56;10.50;;;9.70;;
15669;SDS011;18524;45.190;5.732;2022-08-19T19:19:47;10.47;;;9.67;;
15669;SDS011;18524;45.190;5.732;2022-08-19T19:24:38;11.00;;;10.00;;
15669;SDS011;18524;45.190;5.732;2022-08-19T19:29:29;9.13;;;8.43;;
15669;SDS011;18524;45.190;5.732;2022-08-19T19:34:20;9.53;;;8.77;;
15669;SDS011;18524;45.190;5.732;2022-08-19T19:39:11;9.73;;;8.83;;
15669;SDS011;18524;45.190;5.732;2022-08-19T19:44:02;9.93;;;9.13;;
15669;SDS011;18524;45.190;5.732;2022-08-19T19:48:54;10.47;;;9.60;;
15669;SDS011;18524;45.190;5.732;2022-08-19T19:53:45;10.13;;;9.27;;
15669;SDS011;18524;45.190;5.732;2022-08-19T19:58:35;11.13;;;10.23;;
15669;SDS011;18524;45.190;5.732;2022-08-19T20:03:26;11.40;;;10.30;;
15669;SDS011;18524;45.190;5.732;2022-08-19T20:08:16;11.10;;;9.97;;
15669;SDS011;18524;45.190;5.732;2022-08-19T20:13:26;9.93;;;9.03;;
15669;SDS011;18524;45.190;5.732;2022-08-19T20:18:17;10.87;;;9.77;;
15669;SDS011;18524;45.190;5.732;2022-08-19T20:23:07;9.73;;;9.03;;
15669;SDS011;18524;45.190;5.732;2022-08-19T20:27:58;10.57;;;9.77;;
15669;SDS011;18524;45.190;5.732;2022-08-19T20:32:50;10.77;;;9.77;;
15669;SDS011;18524;45.190;5.732;2022-08-19T20:37:40;9.10;;;8.40;;
15669;SDS011;18524;45.190;5.732;2022-08-19T20:42:31;11.53;;;10.53;;
15669;SDS011;18524;45.190;5.732;2022-08-19T20:47:21;11.07;;;10.03;;
15669;SDS011;18524;45.190;5.732;2022-08-19T20:52:13;11.47;;;10.43;;
15669;SDS011;18524;45.190;5.732;2022-08-19T20:57:04;10.50;;;9.63;;
15669;SDS011;18524;45.190;5.732;2022-08-19T21:01:54;11.50;;;10.50;;
15669;SDS011;18524;45.190;5.732;2022-08-19T21:06:45;9.90;;;9.10;;
15669;SDS011;18524;45.190;5.732;2022-08-19T21:11:35;10.60;;;9.60;;
15669;SDS011;18524;45.190;5.732;2022-08-19T21:16:26;10.90;;;8.87;;
15669;SDS011;18524;45.190;5.732;2022-08-19T21:21:17;10.70;;;9.80;;
15669;SDS011;18524;45.190;5.732;2022-08-19T21:26:07;11.77;;;10.57;;
15669;SDS011;18524;45.190;5.732;2022-08-19T21:30:58;10.90;;;10.00;;
15669;SDS011;18524;45.190;5.732;2022-08-19T21:35:49;11.27;;;10.37;;
15669;SDS011;18524;45.190;5.732;2022-08-19T21:40:40;11.33;;;10.27;;
15669;SDS011;18524;45.190;5.732;2022-08-19T21:45:31;11.97;;;10.80;;
15669;SDS011;18524;45.190;5.732;2022-08-19T21:50:22;11.87;;;10.77;;
15669;SDS011;18524;45.190;5.732;2022-08-19T21:55:12;10.83;;;9.90;;
15669;SDS011;18524;45.190;5.732;2022-08-19T22:00:05;11.93;;;11.03;;
15669;SDS011;18524;45.190;5.732;2022-08-19T22:05:02;11.00;;;10.20;;
15669;SDS011;18524;45.190;5.732;2022-08-19T22:09:52;11.60;;;10.60;;
15669;SDS011;18524;45.190;5.732;2022-08-19T22:14:43;11.83;;;10.83;;
15669;SDS011;18524;45.190;5.732;2022-08-19T22:19:33;9.23;;;8.53;;
15669;SDS011;18524;45.190;5.732;2022-08-19T22:24:23;12.03;;;11.03;;
15669;SDS011;18524;45.190;5.732;2022-08-19T22:29:14;11.47;;;10.57;;
15669;SDS011;18524;45.190;5.732;2022-08-19T22:34:05;11.13;;;10.23;;
15669;SDS011;18524;45.190;5.732;2022-08-19T22:38:56;11.90;;;10.80;;
15669;SDS011;18524;45.190;5.732;2022-08-19T22:43:47;11.90;;;10.90;;
15669;SDS011;18524;45.190;5.732;2022-08-19T22:48:37;12.40;;;11.37;;
15669;SDS011;18524;45.190;5.732;2022-08-19T22:53:27;11.83;;;10.83;;
15669;SDS011;18524;45.190;5.732;2022-08-19T22:58:18;10.77;;;9.97;;
15669;SDS011;18524;45.190;5.732;2022-08-19T23:03:08;11.83;;;10.90;;
15669;SDS011;18524;45.190;5.732;2022-08-19T23:07:58;11.80;;;10.80;;
15669;SDS011;18524;45.190;5.732;2022-08-19T23:12:49;10.90;;;9.90;;
15669;SDS011;18524;45.190;5.732;2022-08-19T23:17:39;10.00;;;9.20;;
15669;SDS011;18524;45.190;5.732;2022-08-19T23:22:30;11.17;;;10.03;;
15669;SDS011;18524;45.190;5.732;2022-08-19T23:27:21;10.93;;;10.00;;
15669;SDS011;18524;45.190;5.732;2022-08-19T23:32:34;9.67;;;8.87;;
15669;SDS011;18524;45.190;5.732;2022-08-19T23:37:24;10.47;;;9.67;;
15669;SDS011;18524;45.190;5.732;2022-08-19T23:42:15;11.97;;;10.97;;
15669;SDS011;18524;45.190;5.732;2022-08-19T23:47:06;12.30;;;11.30;;
15669;SDS011;18524;45.190;5.732;2022-08-19T23:51:56;10.30;;;9.40;;
15669;SDS011;18524;45.190;5.732;2022-08-19T23:56:46;12.10;;;11.10;;
